sensor_id;sensor_type;location;lat;lon;timestamp;pressure;altitude;pressure_sealevel;temperature;humidity
6216;BME280;3141;49.234;9.326;2023-01-25T00:00:23;101434.81;;;6.56;71.14
6216;BME280;3141;49.234;9.326;2023-01-25T00:01:06;101436.16;;;6.63;71.11
6216;BME280;3141;49.234;9.326;2023-01-25T00:01:48;101440.56;;;6.63;70.72
6216;BME280;3141;49.234;9.326;2023-01-25T00:02:30;101437.59;;;6.69;70.40
6216;BME280;3141;49.234;9.326;2023-01-25T00:03:13;101438.63;;;6.66;70.83
6216;BME280;3141;49.234;9.326;2023-01-25T00:03:55;101438.16;;;6.44;71.27
6216;BME280;3141;49.234;9.326;2023-01-25T00:04:37;101432.28;;;6.55;71.12
6216;BME280;3141;49.234;9.326;2023-01-25T00:05:20;101431.72;;;6.50;71.27
6216;BME280;3141;49.234;9.326;2023-01-25T00:06:02;101443.06;;;6.50;71.04
6216;BME280;3141;49.234;9.326;2023-01-25T00:06:45;101433.56;;;6.48;71.15
6216;BME280;3141;49.234;9.326;2023-01-25T00:07:27;101438.75;;;6.34;71.93
6216;BME280;3141;49.234;9.326;2023-01-25T00:08:10;101439.50;;;6.36;72.06
6216;BME280;3141;49.234;9.326;2023-01-25T00:08:52;101441.97;;;6.39;71.92
6216;BME280;3141;49.234;9.326;2023-01-25T00:09:34;101443.00;;;6.36;71.80
6216;BME280;3141;49.234;9.326;2023-01-25T00:10:17;101440.19;;;6.39;71.91
6216;BME280;3141;49.234;9.326;2023-01-25T00:10:59;101439.69;;;6.48;71.47
6216;BME280;3141;49.234;9.326;2023-01-25T00:11:42;101437.38;;;6.58;71.16
6216;BME280;3141;49.234;9.326;2023-01-25T00:12:25;101441.44;;;6.48;70.99
6216;BME280;3141;49.234;9.326;2023-01-25T00:13:07;101433.06;;;6.41;71.53
6216;BME280;3141;49.234;9.326;2023-01-25T00:13:52;101433.84;;;6.43;71.49
6216;BME280;3141;49.234;9.326;2023-01-25T00:14:34;101432.72;;;6.32;72.39
6216;BME280;3141;49.234;9.326;2023-01-25T00:15:17;101430.72;;;6.21;72.76
6216;BME280;3141;49.234;9.326;2023-01-25T00:16:01;101428.44;;;6.15;72.95
6216;BME280;3141;49.234;9.326;2023-01-25T00:16:44;101426.75;;;6.14;73.36
6216;BME280;3141;49.234;9.326;2023-01-25T00:17:26;101429.97;;;6.19;73.03
6216;BME280;3141;49.234;9.326;2023-01-25T00:18:08;101428.75;;;6.09;73.10
6216;BME280;3141;49.234;9.326;2023-01-25T00:18:50;101428.75;;;6.09;73.28
6216;BME280;3141;49.234;9.326;2023-01-25T00:19:33;101419.56;;;6.18;73.04
6216;BME280;3141;49.234;9.326;2023-01-25T00:20:15;101422.19;;;6.18;72.94
6216;BME280;3141;49.234;9.326;2023-01-25T00:20:58;101422.84;;;6.21;73.17
6216;BME280;3141;49.234;9.326;2023-01-25T00:21:40;101425.03;;;6.29;72.87
6216;BME280;3141;49.234;9.326;2023-01-25T00:22:23;101418.69;;;6.33;72.53
6216;BME280;3141;49.234;9.326;2023-01-25T00:23:05;101422.56;;;6.41;72.42
6216;BME280;3141;49.234;9.326;2023-01-25T00:23:48;101424.09;;;6.45;71.85
6216;BME280;3141;49.234;9.326;2023-01-25T00:24:30;101420.72;;;6.43;71.92
6216;BME280;3141;49.234;9.326;2023-01-25T00:25:12;101423.66;;;6.53;71.68
6216;BME280;3141;49.234;9.326;2023-01-25T00:25:58;101413.91;;;6.55;71.72
6216;BME280;3141;49.234;9.326;2023-01-25T00:26:41;101419.81;;;6.58;71.28
6216;BME280;3141;49.234;9.326;2023-01-25T00:27:25;101414.56;;;6.58;71.17
6216;BME280;3141;49.234;9.326;2023-01-25T00:28:07;101412.78;;;6.59;71.23
6216;BME280;3141;49.234;9.326;2023-01-25T00:28:53;101408.03;;;6.65;71.10
6216;BME280;3141;49.234;9.326;2023-01-25T00:29:35;101406.88;;;6.55;71.35
6216;BME280;3141;49.234;9.326;2023-01-25T00:30:18;101406.09;;;6.53;71.54
6216;BME280;3141;49.234;9.326;2023-01-25T00:31:01;101406.38;;;6.49;71.75
6216;BME280;3141;49.234;9.326;2023-01-25T00:32:56;101410.09;;;6.45;71.42
6216;BME280;3141;49.234;9.326;2023-01-25T00:33:48;101410.78;;;6.48;71.69
6216;BME280;3141;49.234;9.326;2023-01-25T00:34:47;101408.09;;;6.34;72.17
6216;BME280;3141;49.234;9.326;2023-01-25T00:35:30;101398.47;;;6.19;73.21
6216;BME280;3141;49.234;9.326;2023-01-25T00:37:36;101390.41;;;6.22;72.92
6216;BME280;3141;49.234;9.326;2023-01-25T00:38:37;101393.44;;;6.30;72.64
6216;BME280;3141;49.234;9.326;2023-01-25T00:39:19;101391.84;;;6.28;72.59
6216;BME280;3141;49.234;9.326;2023-01-25T00:40:02;101397.75;;;6.31;72.46
6216;BME280;3141;49.234;9.326;2023-01-25T00:40:45;101384.06;;;6.26;73.02
6216;BME280;3141;49.234;9.326;2023-01-25T00:41:27;101381.16;;;6.31;72.60
6216;BME280;3141;49.234;9.326;2023-01-25T00:42:10;101391.34;;;6.21;72.90
6216;BME280;3141;49.234;9.326;2023-01-25T00:42:52;101386.41;;;6.15;73.51
6216;BME280;3141;49.234;9.326;2023-01-25T00:43:35;101383.97;;;6.28;73.50
6216;BME280;3141;49.234;9.326;2023-01-25T00:44:17;101381.47;;;6.25;73.49
6216;BME280;3141;49.234;9.326;2023-01-25T00:44:59;101388.16;;;6.30;73.37
6216;BME280;3141;49.234;9.326;2023-01-25T00:45:42;101389.59;;;6.36;72.95
6216;BME280;3141;49.234;9.326;2023-01-25T00:46:24;101381.44;;;6.40;72.81
6216;BME280;3141;49.234;9.326;2023-01-25T00:47:06;101387.47;;;6.42;72.69
6216;BME280;3141;49.234;9.326;2023-01-25T00:47:53;101386.72;;;6.40;72.46
6216;BME280;3141;49.234;9.326;2023-01-25T00:48:35;101393.50;;;6.44;72.73
6216;BME280;3141;49.234;9.326;2023-01-25T00:49:20;101387.13;;;6.48;72.49
6216;BME280;3141;49.234;9.326;2023-01-25T00:50:05;101390.03;;;6.28;72.69
6216;BME280;3141;49.234;9.326;2023-01-25T00:50:47;101383.97;;;6.12;73.50
6216;BME280;3141;49.234;9.326;2023-01-25T00:51:30;101387.59;;;6.10;74.17
6216;BME280;3141;49.234;9.326;2023-01-25T00:52:12;101380.50;;;6.12;73.88
6216;BME280;3141;49.234;9.326;2023-01-25T00:52:55;101381.34;;;5.97;74.59
6216;BME280;3141;49.234;9.326;2023-01-25T00:53:37;101387.03;;;6.05;74.07
6216;BME280;3141;49.234;9.326;2023-01-25T00:54:20;101389.47;;;6.08;74.27
6216;BME280;3141;49.234;9.326;2023-01-25T00:55:03;101382.84;;;6.01;74.32
6216;BME280;3141;49.234;9.326;2023-01-25T00:55:52;101383.47;;;5.90;75.00
6216;BME280;3141;49.234;9.326;2023-01-25T00:56:34;101374.75;;;5.90;74.78
6216;BME280;3141;49.234;9.326;2023-01-25T00:57:16;101375.06;;;5.99;74.41
6216;BME280;3141;49.234;9.326;2023-01-25T00:57:59;101377.78;;;5.98;74.76
6216;BME280;3141;49.234;9.326;2023-01-25T00:58:41;101378.81;;;5.95;74.94
6216;BME280;3141;49.234;9.326;2023-01-25T00:59:24;101379.81;;;5.93;74.83
6216;BME280;3141;49.234;9.326;2023-01-25T01:00:07;101381.59;;;6.08;74.42
6216;BME280;3141;49.234;9.326;2023-01-25T01:00:52;101377.69;;;5.99;74.40
6216;BME280;3141;49.234;9.326;2023-01-25T01:01:35;101377.97;;;6.10;74.22
6216;BME280;3141;49.234;9.326;2023-01-25T01:02:17;101380.91;;;6.20;73.74
6216;BME280;3141;49.234;9.326;2023-01-25T01:03:00;101386.09;;;6.21;73.58
6216;BME280;3141;49.234;9.326;2023-01-25T01:03:42;101381.56;;;6.23;73.53
6216;BME280;3141;49.234;9.326;2023-01-25T01:04:24;101377.19;;;6.08;74.00
6216;BME280;3141;49.234;9.326;2023-01-25T01:05:07;101386.34;;;6.01;74.82
6216;BME280;3141;49.234;9.326;2023-01-25T01:06:07;101385.06;;;6.08;74.11
6216;BME280;3141;49.234;9.326;2023-01-25T01:06:52;101379.91;;;5.91;74.86
6216;BME280;3141;49.234;9.326;2023-01-25T01:07:34;101382.63;;;6.05;74.81
6216;BME280;3141;49.234;9.326;2023-01-25T01:08:17;101380.22;;;6.16;74.35
6216;BME280;3141;49.234;9.326;2023-01-25T01:08:59;101372.53;;;6.13;74.45
6216;BME280;3141;49.234;9.326;2023-01-25T01:09:41;101368.56;;;6.06;74.20
6216;BME280;3141;49.234;9.326;2023-01-25T01:10:24;101371.00;;;6.09;74.53
6216;BME280;3141;49.234;9.326;2023-01-25T01:11:08;101367.03;;;6.18;73.99
6216;BME280;3141;49.234;9.326;2023-01-25T01:11:51;101370.78;;;5.98;74.38
6216;BME280;3141;49.234;9.326;2023-01-25T01:12:34;101364.56;;;5.99;74.93
6216;BME280;3141;49.234;9.326;2023-01-25T01:13:16;101366.41;;;6.13;74.62
6216;BME280;3141;49.234;9.326;2023-01-25T01:13:59;101374.63;;;6.22;74.00
6216;BME280;3141;49.234;9.326;2023-01-25T01:14:41;101371.94;;;6.24;73.48
6216;BME280;3141;49.234;9.326;2023-01-25T01:15:23;101372.78;;;6.24;73.78
6216;BME280;3141;49.234;9.326;2023-01-25T01:16:07;101377.59;;;6.16;73.87
6216;BME280;3141;49.234;9.326;2023-01-25T01:16:50;101368.91;;;6.00;74.67
6216;BME280;3141;49.234;9.326;2023-01-25T01:17:33;101374.25;;;5.99;74.58
6216;BME280;3141;49.234;9.326;2023-01-25T01:18:15;101371.25;;;6.05;74.60
6216;BME280;3141;49.234;9.326;2023-01-25T01:18:57;101370.41;;;6.04;74.48
6216;BME280;3141;49.234;9.326;2023-01-25T01:19:40;101373.09;;;6.18;74.45
6216;BME280;3141;49.234;9.326;2023-01-25T01:20:22;101373.41;;;5.98;74.55
6216;BME280;3141;49.234;9.326;2023-01-25T01:21:05;101369.00;;;6.14;74.30
6216;BME280;3141;49.234;9.326;2023-01-25T01:21:47;101370.16;;;6.09;74.33
6216;BME280;3141;49.234;9.326;2023-01-25T01:22:29;101371.34;;;6.03;74.58
6216;BME280;3141;49.234;9.326;2023-01-25T01:23:11;101369.50;;;6.05;74.46
6216;BME280;3141;49.234;9.326;2023-01-25T01:23:54;101375.44;;;5.93;74.94
6216;BME280;3141;49.234;9.326;2023-01-25T01:24:36;101371.53;;;5.84;75.13
6216;BME280;3141;49.234;9.326;2023-01-25T01:25:18;101368.81;;;5.86;75.27
6216;BME280;3141;49.234;9.326;2023-01-25T01:26:02;101376.78;;;6.00;75.22
6216;BME280;3141;49.234;9.326;2023-01-25T01:26:44;101370.34;;;5.90;75.28
6216;BME280;3141;49.234;9.326;2023-01-25T01:27:27;101374.66;;;5.91;75.15
6216;BME280;3141;49.234;9.326;2023-01-25T01:28:10;101376.88;;;5.99;74.93
6216;BME280;3141;49.234;9.326;2023-01-25T01:28:53;101373.81;;;6.06;74.92
6216;BME280;3141;49.234;9.326;2023-01-25T01:29:35;101384.56;;;6.02;74.59
6216;BME280;3141;49.234;9.326;2023-01-25T01:30:17;101383.53;;;5.88;75.43
6216;BME280;3141;49.234;9.326;2023-01-25T01:31:01;101380.47;;;5.80;75.43
6216;BME280;3141;49.234;9.326;2023-01-25T01:31:43;101378.78;;;5.64;76.54
6216;BME280;3141;49.234;9.326;2023-01-25T01:32:26;101376.66;;;5.70;76.59
6216;BME280;3141;49.234;9.326;2023-01-25T01:33:08;101380.81;;;5.59;76.30
6216;BME280;3141;49.234;9.326;2023-01-25T01:33:52;101381.97;;;5.53;76.88
6216;BME280;3141;49.234;9.326;2023-01-25T01:34:35;101374.31;;;5.66;76.52
6216;BME280;3141;49.234;9.326;2023-01-25T01:35:17;101383.50;;;5.73;76.47
6216;BME280;3141;49.234;9.326;2023-01-25T01:36:14;101385.97;;;5.60;76.79
6216;BME280;3141;49.234;9.326;2023-01-25T01:36:57;101387.47;;;5.80;76.30
6216;BME280;3141;49.234;9.326;2023-01-25T01:37:41;101391.22;;;5.76;76.57
6216;BME280;3141;49.234;9.326;2023-01-25T01:38:24;101389.81;;;5.86;76.08
6216;BME280;3141;49.234;9.326;2023-01-25T01:39:06;101393.03;;;5.91;75.33
6216;BME280;3141;49.234;9.326;2023-01-25T01:39:50;101385.63;;;5.82;76.01
6216;BME280;3141;49.234;9.326;2023-01-25T01:40:32;101392.19;;;5.91;75.71
6216;BME280;3141;49.234;9.326;2023-01-25T01:41:15;101390.28;;;5.77;75.91
6216;BME280;3141;49.234;9.326;2023-01-25T01:41:58;101387.06;;;5.72;76.05
6216;BME280;3141;49.234;9.326;2023-01-25T01:43:01;101388.56;;;5.93;75.32
6216;BME280;3141;49.234;9.326;2023-01-25T01:43:44;101387.09;;;6.03;75.03
6216;BME280;3141;49.234;9.326;2023-01-25T01:44:50;101390.06;;;5.97;74.85
6216;BME280;3141;49.234;9.326;2023-01-25T01:46:30;101388.00;;;5.71;76.09
6216;BME280;3141;49.234;9.326;2023-01-25T01:47:25;101387.31;;;5.67;76.03
6216;BME280;3141;49.234;9.326;2023-01-25T01:49:25;101387.13;;;5.55;76.65
6216;BME280;3141;49.234;9.326;2023-01-25T01:50:20;101386.66;;;5.64;76.31
6216;BME280;3141;49.234;9.326;2023-01-25T01:52:39;101386.22;;;5.71;76.11
6216;BME280;3141;49.234;9.326;2023-01-25T01:53:22;101376.91;;;5.66;76.23
6216;BME280;3141;49.234;9.326;2023-01-25T01:54:16;101385.78;;;5.63;76.66
6216;BME280;3141;49.234;9.326;2023-01-25T01:55:03;101382.00;;;5.69;76.46
6216;BME280;3141;49.234;9.326;2023-01-25T01:55:48;101381.50;;;5.78;76.41
6216;BME280;3141;49.234;9.326;2023-01-25T01:56:39;101387.56;;;5.78;75.95
6216;BME280;3141;49.234;9.326;2023-01-25T01:57:33;101386.25;;;5.87;75.94
6216;BME280;3141;49.234;9.326;2023-01-25T01:58:17;101383.75;;;5.68;75.86
6216;BME280;3141;49.234;9.326;2023-01-25T01:59:00;101380.63;;;5.62;76.03
6216;BME280;3141;49.234;9.326;2023-01-25T01:59:54;101377.06;;;5.63;76.07
6216;BME280;3141;49.234;9.326;2023-01-25T02:00:38;101375.56;;;5.59;76.61
6216;BME280;3141;49.234;9.326;2023-01-25T02:01:21;101379.34;;;5.53;76.58
6216;BME280;3141;49.234;9.326;2023-01-25T02:02:04;101376.03;;;5.50;77.53
6216;BME280;3141;49.234;9.326;2023-01-25T02:02:48;101378.91;;;5.61;76.89
6216;BME280;3141;49.234;9.326;2023-01-25T02:03:31;101374.88;;;5.55;76.94
6216;BME280;3141;49.234;9.326;2023-01-25T02:04:14;101373.00;;;5.57;76.86
6216;BME280;3141;49.234;9.326;2023-01-25T02:05:00;101376.03;;;5.50;76.99
6216;BME280;3141;49.234;9.326;2023-01-25T02:05:51;101376.63;;;5.55;77.02
6216;BME280;3141;49.234;9.326;2023-01-25T02:06:43;101368.94;;;5.52;76.98
6216;BME280;3141;49.234;9.326;2023-01-25T02:07:33;101366.75;;;5.60;77.12
6216;BME280;3141;49.234;9.326;2023-01-25T02:08:17;101371.13;;;5.59;76.82
6216;BME280;3141;49.234;9.326;2023-01-25T02:09:00;101362.34;;;5.45;77.16
6216;BME280;3141;49.234;9.326;2023-01-25T02:09:43;101372.34;;;5.54;77.13
6216;BME280;3141;49.234;9.326;2023-01-25T02:10:25;101372.16;;;5.57;76.97
6216;BME280;3141;49.234;9.326;2023-01-25T02:11:09;101371.41;;;5.55;76.84
6216;BME280;3141;49.234;9.326;2023-01-25T02:11:52;101362.75;;;5.53;76.99
6216;BME280;3141;49.234;9.326;2023-01-25T02:12:36;101364.53;;;5.52;77.24
6216;BME280;3141;49.234;9.326;2023-01-25T02:13:19;101366.31;;;5.52;77.54
6216;BME280;3141;49.234;9.326;2023-01-25T02:14:01;101371.22;;;5.58;76.68
6216;BME280;3141;49.234;9.326;2023-01-25T02:14:47;101376.25;;;5.62;76.53
6216;BME280;3141;49.234;9.326;2023-01-25T02:15:43;101372.25;;;5.55;77.08
6216;BME280;3141;49.234;9.326;2023-01-25T02:16:27;101368.59;;;5.58;76.83
6216;BME280;3141;49.234;9.326;2023-01-25T02:17:10;101365.72;;;5.47;76.75
6216;BME280;3141;49.234;9.326;2023-01-25T02:17:53;101369.72;;;5.54;77.26
6216;BME280;3141;49.234;9.326;2023-01-25T02:18:35;101374.50;;;5.46;77.21
6216;BME280;3141;49.234;9.326;2023-01-25T02:19:38;101375.09;;;5.51;77.17
6216;BME280;3141;49.234;9.326;2023-01-25T02:20:35;101373.25;;;5.53;77.26
6216;BME280;3141;49.234;9.326;2023-01-25T02:21:18;101371.41;;;5.55;76.74
6216;BME280;3141;49.234;9.326;2023-01-25T02:22:02;101374.19;;;5.52;76.88
6216;BME280;3141;49.234;9.326;2023-01-25T02:23:03;101367.59;;;5.45;77.31
6216;BME280;3141;49.234;9.326;2023-01-25T02:23:55;101372.00;;;5.60;77.22
6216;BME280;3141;49.234;9.326;2023-01-25T02:24:49;101366.75;;;5.60;76.63
6216;BME280;3141;49.234;9.326;2023-01-25T02:25:35;101368.69;;;5.56;77.20
6216;BME280;3141;49.234;9.326;2023-01-25T02:26:18;101369.44;;;5.43;77.17
6216;BME280;3141;49.234;9.326;2023-01-25T02:27:00;101362.81;;;5.36;77.53
6216;BME280;3141;49.234;9.326;2023-01-25T02:28:04;101368.66;;;5.41;77.51
6216;BME280;3141;49.234;9.326;2023-01-25T02:28:58;101365.03;;;5.43;77.34
6216;BME280;3141;49.234;9.326;2023-01-25T02:29:43;101369.97;;;5.65;76.96
6216;BME280;3141;49.234;9.326;2023-01-25T02:30:27;101371.69;;;5.66;76.48
6216;BME280;3141;49.234;9.326;2023-01-25T02:31:09;101370.44;;;5.56;76.94
6216;BME280;3141;49.234;9.326;2023-01-25T02:31:58;101364.13;;;5.60;76.40
6216;BME280;3141;49.234;9.326;2023-01-25T02:32:41;101369.78;;;5.68;76.06
6216;BME280;3141;49.234;9.326;2023-01-25T02:33:24;101367.91;;;5.54;77.06
6216;BME280;3141;49.234;9.326;2023-01-25T02:34:07;101375.00;;;5.52;77.26
6216;BME280;3141;49.234;9.326;2023-01-25T02:34:49;101374.34;;;5.64;76.72
6216;BME280;3141;49.234;9.326;2023-01-25T02:36:27;101363.72;;;5.67;76.24
6216;BME280;3141;49.234;9.326;2023-01-25T02:37:13;101374.53;;;5.61;76.34
6216;BME280;3141;49.234;9.326;2023-01-25T02:37:56;101366.84;;;5.74;76.39
6216;BME280;3141;49.234;9.326;2023-01-25T02:38:42;101365.22;;;5.71;76.21
6216;BME280;3141;49.234;9.326;2023-01-25T02:39:27;101374.25;;;5.83;75.96
6216;BME280;3141;49.234;9.326;2023-01-25T02:40:10;101362.28;;;5.62;76.23
6216;BME280;3141;49.234;9.326;2023-01-25T02:40:56;101367.69;;;5.74;76.29
6216;BME280;3141;49.234;9.326;2023-01-25T02:41:42;101364.38;;;5.55;76.15
6216;BME280;3141;49.234;9.326;2023-01-25T02:42:29;101358.88;;;5.60;76.68
6216;BME280;3141;49.234;9.326;2023-01-25T02:43:11;101364.72;;;5.65;76.43
6216;BME280;3141;49.234;9.326;2023-01-25T02:43:54;101367.59;;;5.60;76.47
6216;BME280;3141;49.234;9.326;2023-01-25T02:44:36;101357.50;;;5.53;76.65
6216;BME280;3141;49.234;9.326;2023-01-25T02:45:23;101360.03;;;5.54;76.56
6216;BME280;3141;49.234;9.326;2023-01-25T02:46:24;101361.06;;;5.52;76.78
6216;BME280;3141;49.234;9.326;2023-01-25T02:47:08;101352.75;;;5.44;77.56
6216;BME280;3141;49.234;9.326;2023-01-25T02:47:50;101347.84;;;5.38;77.47
6216;BME280;3141;49.234;9.326;2023-01-25T02:48:33;101346.59;;;5.45;76.96
6216;BME280;3141;49.234;9.326;2023-01-25T02:49:16;101351.69;;;5.63;77.13
6216;BME280;3141;49.234;9.326;2023-01-25T02:49:59;101354.41;;;5.62;76.45
6216;BME280;3141;49.234;9.326;2023-01-25T02:50:41;101355.84;;;5.67;76.48
6216;BME280;3141;49.234;9.326;2023-01-25T02:51:26;101356.09;;;5.78;76.05
6216;BME280;3141;49.234;9.326;2023-01-25T02:52:09;101352.38;;;5.67;75.99
6216;BME280;3141;49.234;9.326;2023-01-25T02:52:51;101358.38;;;5.69;76.27
6216;BME280;3141;49.234;9.326;2023-01-25T02:53:34;101353.91;;;5.71;76.16
6216;BME280;3141;49.234;9.326;2023-01-25T02:54:18;101355.25;;;5.62;76.21
6216;BME280;3141;49.234;9.326;2023-01-25T02:55:00;101353.72;;;5.58;76.30
6216;BME280;3141;49.234;9.326;2023-01-25T02:55:42;101363.34;;;5.58;76.98
6216;BME280;3141;49.234;9.326;2023-01-25T02:56:25;101354.63;;;5.57;76.98
6216;BME280;3141;49.234;9.326;2023-01-25T02:57:08;101352.78;;;5.59;76.77
6216;BME280;3141;49.234;9.326;2023-01-25T02:57:50;101355.94;;;5.66;76.91
6216;BME280;3141;49.234;9.326;2023-01-25T02:58:33;101353.53;;;5.46;76.62
6216;BME280;3141;49.234;9.326;2023-01-25T02:59:15;101353.69;;;5.43;77.23
6216;BME280;3141;49.234;9.326;2023-01-25T02:59:59;101347.78;;;5.39;77.61
6216;BME280;3141;49.234;9.326;2023-01-25T03:00:42;101351.34;;;5.54;77.31
6216;BME280;3141;49.234;9.326;2023-01-25T03:01:24;101355.56;;;5.41;77.57
6216;BME280;3141;49.234;9.326;2023-01-25T03:02:06;101346.66;;;5.28;78.02
6216;BME280;3141;49.234;9.326;2023-01-25T03:02:49;101353.19;;;5.36;77.67
6216;BME280;3141;49.234;9.326;2023-01-25T03:03:31;101351.00;;;5.44;77.49
6216;BME280;3141;49.234;9.326;2023-01-25T03:04:14;101346.50;;;5.46;77.61
6216;BME280;3141;49.234;9.326;2023-01-25T03:04:57;101361.06;;;5.52;77.67
6216;BME280;3141;49.234;9.326;2023-01-25T03:05:39;101356.44;;;5.57;77.13
6216;BME280;3141;49.234;9.326;2023-01-25T03:06:21;101357.34;;;5.56;77.00
6216;BME280;3141;49.234;9.326;2023-01-25T03:07:04;101359.03;;;5.57;76.65
6216;BME280;3141;49.234;9.326;2023-01-25T03:07:46;101351.06;;;5.43;77.33
6216;BME280;3141;49.234;9.326;2023-01-25T03:08:29;101347.69;;;5.56;76.49
6216;BME280;3141;49.234;9.326;2023-01-25T03:09:11;101351.28;;;5.55;77.05
6216;BME280;3141;49.234;9.326;2023-01-25T03:09:54;101348.97;;;5.49;76.91
6216;BME280;3141;49.234;9.326;2023-01-25T03:10:36;101347.59;;;5.42;77.16
6216;BME280;3141;49.234;9.326;2023-01-25T03:11:18;101343.72;;;5.49;77.09
6216;BME280;3141;49.234;9.326;2023-01-25T03:12:01;101353.88;;;5.55;76.88
6216;BME280;3141;49.234;9.326;2023-01-25T03:12:43;101347.97;;;5.52;77.23
6216;BME280;3141;49.234;9.326;2023-01-25T03:13:26;101351.41;;;5.68;76.42
6216;BME280;3141;49.234;9.326;2023-01-25T03:14:09;101344.56;;;5.50;77.14
6216;BME280;3141;49.234;9.326;2023-01-25T03:14:51;101350.22;;;5.58;77.02
6216;BME280;3141;49.234;9.326;2023-01-25T03:15:33;101340.78;;;5.55;76.95
6216;BME280;3141;49.234;9.326;2023-01-25T03:16:16;101345.66;;;5.61;76.94
6216;BME280;3141;49.234;9.326;2023-01-25T03:16:58;101347.13;;;5.67;76.66
6216;BME280;3141;49.234;9.326;2023-01-25T03:17:40;101344.31;;;5.70;76.32
6216;BME280;3141;49.234;9.326;2023-01-25T03:18:22;101346.63;;;5.76;76.36
6216;BME280;3141;49.234;9.326;2023-01-25T03:19:05;101338.47;;;5.65;76.93
6216;BME280;3141;49.234;9.326;2023-01-25T03:19:47;101345.75;;;5.60;76.66
6216;BME280;3141;49.234;9.326;2023-01-25T03:20:29;101337.63;;;5.49;76.89
6216;BME280;3141;49.234;9.326;2023-01-25T03:21:17;101332.72;;;5.58;76.93
6216;BME280;3141;49.234;9.326;2023-01-25T03:21:59;101335.84;;;5.65;76.72
6216;BME280;3141;49.234;9.326;2023-01-25T03:22:41;101342.56;;;5.70;76.59
6216;BME280;3141;49.234;9.326;2023-01-25T03:23:24;101339.16;;;5.68;76.46
6216;BME280;3141;49.234;9.326;2023-01-25T03:24:08;101335.25;;;5.60;76.20
6216;BME280;3141;49.234;9.326;2023-01-25T03:24:51;101330.53;;;5.66;76.62
6216;BME280;3141;49.234;9.326;2023-01-25T03:25:33;101327.13;;;5.80;76.27
6216;BME280;3141;49.234;9.326;2023-01-25T03:26:18;101333.63;;;5.90;75.64
6216;BME280;3141;49.234;9.326;2023-01-25T03:27:01;101330.59;;;5.65;76.44
6216;BME280;3141;49.234;9.326;2023-01-25T03:27:52;101331.03;;;5.73;76.04
6216;BME280;3141;49.234;9.326;2023-01-25T03:28:36;101332.91;;;5.71;76.50
6216;BME280;3141;49.234;9.326;2023-01-25T03:29:18;101326.41;;;5.78;76.26
6216;BME280;3141;49.234;9.326;2023-01-25T03:30:00;101331.19;;;5.70;76.00
6216;BME280;3141;49.234;9.326;2023-01-25T03:30:42;101331.03;;;5.57;76.83
6216;BME280;3141;49.234;9.326;2023-01-25T03:31:25;101331.47;;;5.50;77.03
6216;BME280;3141;49.234;9.326;2023-01-25T03:32:07;101332.22;;;5.52;76.88
6216;BME280;3141;49.234;9.326;2023-01-25T03:32:50;101330.88;;;5.45;77.45
6216;BME280;3141;49.234;9.326;2023-01-25T03:33:32;101327.97;;;5.49;76.91
6216;BME280;3141;49.234;9.326;2023-01-25T03:34:14;101321.13;;;5.47;77.33
6216;BME280;3141;49.234;9.326;2023-01-25T03:34:57;101325.94;;;5.39;77.70
6216;BME280;3141;49.234;9.326;2023-01-25T03:35:40;101323.00;;;5.45;77.94
6216;BME280;3141;49.234;9.326;2023-01-25T03:36:22;101324.19;;;5.55;77.19
6216;BME280;3141;49.234;9.326;2023-01-25T03:37:04;101324.59;;;5.47;77.56
6216;BME280;3141;49.234;9.326;2023-01-25T03:37:47;101335.34;;;5.43;77.47
6216;BME280;3141;49.234;9.326;2023-01-25T03:38:29;101317.84;;;5.43;77.59
6216;BME280;3141;49.234;9.326;2023-01-25T03:39:12;101327.41;;;5.60;77.53
6216;BME280;3141;49.234;9.326;2023-01-25T03:39:54;101322.31;;;5.41;77.68
6216;BME280;3141;49.234;9.326;2023-01-25T03:40:37;101321.47;;;5.41;77.58
6216;BME280;3141;49.234;9.326;2023-01-25T03:41:19;101322.53;;;5.37;78.15
6216;BME280;3141;49.234;9.326;2023-01-25T03:42:02;101322.50;;;5.38;78.15
6216;BME280;3141;49.234;9.326;2023-01-25T03:42:44;101323.81;;;5.45;78.13
6216;BME280;3141;49.234;9.326;2023-01-25T03:43:26;101323.16;;;5.57;77.35
6216;BME280;3141;49.234;9.326;2023-01-25T03:44:09;101333.31;;;5.63;77.13
6216;BME280;3141;49.234;9.326;2023-01-25T03:44:54;101321.97;;;5.47;77.40
6216;BME280;3141;49.234;9.326;2023-01-25T03:45:36;101318.34;;;5.50;77.62
6216;BME280;3141;49.234;9.326;2023-01-25T03:46:19;101326.81;;;5.55;77.30
6216;BME280;3141;49.234;9.326;2023-01-25T03:47:01;101328.47;;;5.56;77.44
6216;BME280;3141;49.234;9.326;2023-01-25T03:47:43;101319.09;;;5.52;77.28
6216;BME280;3141;49.234;9.326;2023-01-25T03:48:26;101319.34;;;5.47;77.56
6216;BME280;3141;49.234;9.326;2023-01-25T03:49:09;101326.97;;;5.52;77.48
6216;BME280;3141;49.234;9.326;2023-01-25T03:49:51;101320.88;;;5.51;77.33
6216;BME280;3141;49.234;9.326;2023-01-25T03:50:34;101322.72;;;5.49;77.82
6216;BME280;3141;49.234;9.326;2023-01-25T03:51:16;101319.94;;;5.52;76.95
6216;BME280;3141;49.234;9.326;2023-01-25T03:51:58;101325.34;;;5.49;77.09
6216;BME280;3141;49.234;9.326;2023-01-25T03:52:41;101322.56;;;5.52;77.69
6216;BME280;3141;49.234;9.326;2023-01-25T03:53:27;101320.69;;;5.54;77.23
6216;BME280;3141;49.234;9.326;2023-01-25T03:54:10;101325.78;;;5.57;77.18
6216;BME280;3141;49.234;9.326;2023-01-25T03:54:53;101321.38;;;5.58;76.93
6216;BME280;3141;49.234;9.326;2023-01-25T03:55:35;101317.66;;;5.46;77.27
6216;BME280;3141;49.234;9.326;2023-01-25T03:56:17;101319.03;;;5.53;77.19
6216;BME280;3141;49.234;9.326;2023-01-25T03:57:01;101315.81;;;5.64;77.07
6216;BME280;3141;49.234;9.326;2023-01-25T03:57:43;101321.38;;;5.58;76.81
6216;BME280;3141;49.234;9.326;2023-01-25T03:58:26;101319.34;;;5.63;76.23
6216;BME280;3141;49.234;9.326;2023-01-25T03:59:10;101324.44;;;5.66;76.91
6216;BME280;3141;49.234;9.326;2023-01-25T03:59:52;101323.25;;;5.71;76.56
6216;BME280;3141;49.234;9.326;2023-01-25T04:00:35;101324.59;;;5.63;76.60
6216;BME280;3141;49.234;9.326;2023-01-25T04:01:17;101312.50;;;5.45;77.01
6216;BME280;3141;49.234;9.326;2023-01-25T04:01:59;101318.00;;;5.56;76.80
6216;BME280;3141;49.234;9.326;2023-01-25T04:02:42;101317.16;;;5.55;76.62
6216;BME280;3141;49.234;9.326;2023-01-25T04:03:24;101314.63;;;5.54;77.13
6216;BME280;3141;49.234;9.326;2023-01-25T04:04:07;101313.28;;;5.47;77.01
6216;BME280;3141;49.234;9.326;2023-01-25T04:04:49;101311.56;;;5.46;77.34
6216;BME280;3141;49.234;9.326;2023-01-25T04:05:31;101319.91;;;5.37;77.56
6216;BME280;3141;49.234;9.326;2023-01-25T04:06:14;101315.34;;;5.40;77.56
6216;BME280;3141;49.234;9.326;2023-01-25T04:06:56;101313.59;;;5.41;77.47